createdAt,value
2023-03-21T00:01:54.068Z,23.00
2023-03-21T00:04:27.185Z,24.70
2023-03-21T00:06:55.787Z,25.00
2023-03-21T00:09:23.474Z,28.30
2023-03-21T00:11:50.725Z,29.30
2023-03-21T00:14:20.785Z,27.93
2023-03-21T00:16:52.022Z,27.07
2023-03-21T00:19:20.877Z,28.70
2023-03-21T00:22:08.755Z,28.90
2023-03-21T00:24:37.361Z,28.30
2023-03-21T00:29:52.111Z,30.10
2023-03-21T00:32:21.368Z,27.37
2023-03-21T00:35:02.345Z,30.83
2023-03-21T00:37:37.257Z,24.90
2023-03-21T00:40:16.305Z,34.60
2023-03-21T00:42:50.959Z,29.30
2023-03-21T00:45:19.234Z,28.30
2023-03-21T00:47:46.538Z,29.67
2023-03-21T00:50:13.947Z,28.83
2023-03-21T00:52:41.665Z,30.90
2023-03-21T00:55:17.348Z,28.07
2023-03-21T00:57:47.509Z,28.97
2023-03-21T01:00:20.116Z,31.70
2023-03-21T01:03:14.129Z,31.90
2023-03-21T01:06:02.064Z,33.07
2023-03-21T01:08:41.456Z,29.00
2023-03-21T01:11:20.841Z,32.40
2023-03-21T01:13:54.742Z,31.87
2023-03-21T01:16:27.168Z,29.87
2023-03-21T01:18:54.496Z,29.50
2023-03-21T01:21:21.728Z,35.60
2023-03-21T01:23:49.049Z,32.53
2023-03-21T01:26:16.569Z,29.70
2023-03-21T01:28:45.714Z,33.17
2023-03-21T01:31:15.335Z,33.67
2023-03-21T01:33:43.719Z,37.90
2023-03-21T01:36:17.594Z,36.10
2023-03-21T01:38:46.193Z,33.80
2023-03-21T01:41:46.998Z,36.37
2023-03-21T01:44:19.546Z,33.07
2023-03-21T01:47:07.390Z,33.57
2023-03-21T01:49:49.516Z,34.67
2023-03-21T01:52:37.815Z,31.27
2023-03-21T01:55:15.304Z,35.17
2023-03-21T01:58:05.908Z,34.43
2023-03-21T02:00:41.790Z,31.50
2023-03-21T02:03:34.976Z,36.30
2023-03-21T02:06:22.451Z,33.90
2023-03-21T02:08:55.402Z,35.67
2023-03-21T02:11:23.794Z,38.50
2023-03-21T02:13:55.848Z,37.83
2023-03-21T02:16:50.643Z,35.70
2023-03-21T02:19:32.783Z,39.30
2023-03-21T02:22:35.350Z,38.47
2023-03-21T02:25:21.804Z,36.80
2023-03-21T02:28:15.272Z,36.53
2023-03-21T02:31:10.732Z,37.97
2023-03-21T02:33:49.896Z,37.00
2023-03-21T02:36:34.032Z,36.00
2023-03-21T02:39:11.525Z,35.93
2023-03-21T02:41:54.726Z,37.90
2023-03-21T02:45:01.728Z,36.40
2023-03-21T02:47:41.848Z,34.57
2023-03-21T02:50:37.353Z,40.67
2023-03-21T02:53:08.628Z,31.57
2023-03-21T02:55:38.985Z,38.00
2023-03-21T02:58:13.178Z,42.13
2023-03-21T03:00:48.497Z,39.47
2023-03-21T03:03:33.875Z,41.00
2023-03-21T03:06:07.724Z,38.67
2023-03-21T03:09:14.765Z,39.17
2023-03-21T03:11:44.547Z,40.27
2023-03-21T03:14:53.006Z,44.33
2023-03-21T03:17:47.356Z,40.40
2023-03-21T03:20:24.668Z,39.23
2023-03-21T03:23:20.881Z,40.10
2023-03-21T03:26:17.527Z,42.67
2023-03-21T03:28:54.887Z,39.73
2023-03-21T03:31:33.385Z,40.70
2023-03-21T03:34:07.128Z,40.27
2023-03-21T03:36:48.013Z,39.33
2023-03-21T03:39:18.702Z,36.30
2023-03-21T03:42:27.921Z,42.60
2023-03-21T03:45:05.485Z,42.53
2023-03-21T03:47:55.918Z,41.70
2023-03-21T03:50:32.560Z,43.50
2023-03-21T03:53:22.835Z,38.00
2023-03-21T03:55:55.728Z,38.63
2023-03-21T03:58:30.989Z,37.90
2023-03-21T04:01:03.631Z,38.67
2023-03-21T04:03:46.076Z,36.00
2023-03-21T04:06:16.905Z,37.70
2023-03-21T04:08:45.271Z,42.00
2023-03-21T04:11:15.775Z,36.83
2023-03-21T04:13:47.336Z,45.30
2023-03-21T04:16:20.461Z,43.57
2023-03-21T04:18:49.014Z,46.50
2023-03-21T04:21:19.544Z,44.77
2023-03-21T04:23:46.812Z,46.03
2023-03-21T04:26:14.585Z,48.20
2023-03-21T04:29:00.776Z,41.60
2023-03-21T04:31:49.853Z,46.03
2023-03-21T04:34:17.737Z,48.47
2023-03-21T04:36:53.929Z,47.93
2023-03-21T04:39:21.915Z,45.40
2023-03-21T04:41:50.514Z,50.67
2023-03-21T04:44:18.468Z,55.17
2023-03-21T04:46:46.723Z,46.90
2023-03-21T04:49:13.968Z,48.57
2023-03-21T04:51:45.092Z,42.90
2023-03-21T04:56:42.770Z,47.00
2023-03-21T04:59:13.436Z,47.17
2023-03-21T05:01:43.816Z,44.87
2023-03-21T05:04:14.166Z,48.83
2023-03-21T05:06:44.843Z,46.70
2023-03-21T05:09:15.590Z,46.33
2023-03-21T05:11:43.777Z,46.73
2023-03-21T05:14:19.999Z,51.67
2023-03-21T05:16:55.980Z,50.50
2023-03-21T05:19:34.596Z,53.20
2023-03-21T05:22:06.505Z,52.83
2023-03-21T05:24:34.383Z,46.47
2023-03-21T05:27:03.543Z,45.57
2023-03-21T05:29:38.866Z,42.17
2023-03-21T05:32:07.700Z,42.80
2023-03-21T05:34:35.048Z,50.87
2023-03-21T05:37:02.473Z,46.40
2023-03-21T05:39:46.008Z,44.07
2023-03-21T05:42:19.766Z,42.13
2023-03-21T05:44:47.909Z,40.10
2023-03-21T05:47:17.088Z,45.90
2023-03-21T05:49:47.163Z,46.07
2023-03-21T05:52:15.473Z,59.37
2023-03-21T05:54:42.855Z,40.17
2023-03-21T05:57:11.510Z,49.50
2023-03-21T06:00:18.468Z,47.60
2023-03-21T06:03:00.600Z,44.90
2023-03-21T06:05:39.353Z,46.13
2023-03-21T06:08:15.696Z,33.40
2023-03-21T06:10:45.344Z,42.60
2023-03-21T06:13:13.720Z,44.00
2023-03-21T06:15:41.356Z,45.70
2023-03-21T06:18:15.213Z,47.97
2023-03-21T06:20:52.015Z,49.67
2023-03-21T06:23:19.206Z,42.80
2023-03-21T06:25:48.884Z,39.27
2023-03-21T06:28:16.155Z,47.73
2023-03-21T06:30:44.230Z,42.80
2023-03-21T06:33:19.502Z,42.37
2023-03-21T06:35:53.170Z,41.80
2023-03-21T06:38:21.060Z,49.47
2023-03-21T06:40:49.598Z,42.40
2023-03-21T06:43:17.698Z,50.03
2023-03-21T06:45:46.047Z,48.93
2023-03-21T06:48:13.391Z,43.07
2023-03-21T06:50:50.237Z,43.00
2023-03-21T06:53:20.910Z,46.50
2023-03-21T06:56:09.644Z,45.77
2023-03-21T06:58:38.148Z,39.03
2023-03-21T07:01:06.952Z,40.83
2023-03-21T07:03:40.188Z,45.43
2023-03-21T07:06:11.690Z,50.50
2023-03-21T07:08:41.102Z,43.53
2023-03-21T07:11:09.197Z,46.67
2023-03-21T07:13:36.886Z,46.57
2023-03-21T07:16:05.920Z,37.50
2023-03-21T07:18:33.347Z,37.37
2023-03-21T07:21:00.694Z,39.90
2023-03-21T07:23:28.683Z,39.87
2023-03-21T07:25:56.551Z,44.33
2023-03-21T07:28:24.327Z,43.80
2023-03-21T07:30:55.257Z,35.37
2023-03-21T07:33:23.148Z,41.30
2023-03-21T07:35:51.554Z,39.90
2023-03-21T07:38:20.279Z,43.23
2023-03-21T07:40:48.331Z,42.03
2023-03-21T07:43:16.887Z,42.63
2023-03-21T07:45:45.611Z,37.30
2023-03-21T07:48:15.076Z,35.50
2023-03-21T07:50:42.324Z,41.20
2023-03-21T07:53:10.180Z,42.17
2023-03-21T07:55:37.729Z,41.27
2023-03-21T07:58:05.401Z,42.17
2023-03-21T08:00:33.097Z,39.47
2023-03-21T08:03:00.960Z,39.43
2023-03-21T08:05:33.487Z,37.80
2023-03-21T08:08:01.491Z,38.97
2023-03-21T08:10:30.740Z,41.70
2023-03-21T08:12:58.259Z,41.60
2023-03-21T08:15:25.560Z,37.67
2023-03-21T08:17:52.760Z,34.10
2023-03-21T08:20:23.320Z,38.97
2023-03-21T08:22:51.151Z,39.80
2023-03-21T08:25:21.606Z,39.33
2023-03-21T08:27:49.929Z,29.33
2023-03-21T08:30:22.635Z,39.17
2023-03-21T08:32:50.929Z,39.93
2023-03-21T08:35:20.280Z,39.83
2023-03-21T08:37:47.687Z,36.43
2023-03-21T08:40:17.605Z,39.40
2023-03-21T08:42:46.402Z,39.83
2023-03-21T08:45:16.134Z,38.90
2023-03-21T08:47:43.596Z,37.23
2023-03-21T08:50:15.494Z,39.80
2023-03-21T08:52:43.348Z,41.53
2023-03-21T08:55:11.610Z,38.47
2023-03-21T08:57:38.936Z,37.87
2023-03-21T09:00:14.412Z,35.43
2023-03-21T09:02:44.292Z,35.97
2023-03-21T09:05:13.249Z,35.17
2023-03-21T09:07:41.572Z,36.23
2023-03-21T09:10:21.100Z,35.60
2023-03-21T09:12:53.831Z,36.37
2023-03-21T09:15:24.267Z,33.57
2023-03-21T09:17:54.078Z,35.53
2023-03-21T09:20:25.974Z,36.17
2023-03-21T09:22:53.601Z,37.03
2023-03-21T09:25:21.314Z,33.27
2023-03-21T09:27:53.650Z,38.70
2023-03-21T09:30:26.246Z,30.60
2023-03-21T09:32:55.519Z,40.63
2023-03-21T09:35:24.737Z,32.70
2023-03-21T09:37:51.914Z,38.80
2023-03-21T09:40:56.300Z,32.77
2023-03-21T09:43:39.637Z,30.17
2023-03-21T09:46:27.406Z,31.80
2023-03-21T09:49:10.017Z,33.90
2023-03-21T09:51:45.778Z,31.37
2023-03-21T09:54:18.941Z,28.83
2023-03-21T09:56:47.627Z,34.20
2023-03-21T09:59:40.079Z,34.33
2023-03-21T10:02:38.126Z,36.20
2023-03-21T10:05:25.651Z,30.70
2023-03-21T10:07:58.633Z,29.93
2023-03-21T10:10:31.290Z,29.17
2023-03-21T10:12:58.512Z,30.27
2023-03-21T10:15:27.224Z,33.20
2023-03-21T10:18:24.695Z,34.90
2023-03-21T10:20:52.588Z,35.03
2023-03-21T10:23:25.511Z,33.17
2023-03-21T10:26:07.934Z,34.40
2023-03-21T10:28:52.470Z,30.80
2023-03-21T10:31:26.169Z,31.83
2023-03-21T10:33:56.149Z,33.23
2023-03-21T10:36:27.041Z,34.13
2023-03-21T10:39:00.846Z,32.70
2023-03-21T10:41:28.334Z,28.87
2023-03-21T10:44:17.820Z,30.33
2023-03-21T10:46:57.048Z,26.80
2023-03-21T10:49:27.064Z,30.80
2023-03-21T10:51:58.353Z,28.10
2023-03-21T10:54:30.807Z,22.50
2023-03-21T10:57:04.815Z,29.30
2023-03-21T10:59:47.091Z,27.87
2023-03-21T11:02:24.198Z,26.47
2023-03-21T11:04:54.527Z,30.47
2023-03-21T11:07:25.388Z,30.30
2023-03-21T11:09:58.144Z,26.57
2023-03-21T11:12:29.798Z,27.80
2023-03-21T11:14:57.886Z,29.53
2023-03-21T11:17:29.392Z,28.17
2023-03-21T11:20:08.969Z,30.27
2023-03-21T11:22:43.322Z,31.77
2023-03-21T11:25:27.846Z,30.47
2023-03-21T11:27:56.141Z,28.47
2023-03-21T11:30:26.711Z,30.40
2023-03-21T11:32:56.827Z,27.30
2023-03-21T11:35:32.055Z,31.90
2023-03-21T11:37:59.718Z,31.80
2023-03-21T11:40:31.885Z,30.40
2023-03-21T11:43:00.512Z,28.10
2023-03-21T11:45:30.397Z,26.67
2023-03-21T11:48:00.187Z,30.20
2023-03-21T11:50:37.303Z,26.07
2023-03-21T11:53:19.348Z,21.20
2023-03-21T11:56:27.999Z,20.07
2023-03-21T11:59:18.815Z,24.17
2023-03-21T12:01:59.699Z,23.57
2023-03-21T12:04:36.788Z,19.37
2023-03-21T12:07:06.965Z,20.43
2023-03-21T12:10:09.731Z,19.00
2023-03-21T12:12:45.894Z,16.13
2023-03-21T12:15:20.702Z,18.37
2023-03-21T12:18:18.856Z,20.17
2023-03-21T12:21:05.070Z,17.77
2023-03-21T12:24:00.353Z,18.37
2023-03-21T12:26:46.081Z,18.23
2023-03-21T12:29:27.282Z,18.60
2023-03-21T12:32:19.499Z,20.70
2023-03-21T12:35:00.384Z,20.77
2023-03-21T12:37:41.611Z,22.63
2023-03-21T12:40:24.040Z,15.70
2023-03-21T12:43:01.536Z,18.87
2023-03-21T12:45:46.548Z,18.03
2023-03-21T12:48:43.144Z,16.40
2023-03-21T12:51:17.997Z,18.27
2023-03-21T12:54:00.597Z,18.43
2023-03-21T12:56:30.461Z,17.90
2023-03-21T12:59:20.553Z,20.70
2023-03-21T13:01:50.400Z,18.93
2023-03-21T13:04:33.995Z,16.43
2023-03-21T13:07:06.593Z,16.30
2023-03-21T13:09:39.978Z,17.50
2023-03-21T13:12:19.468Z,17.83
2023-03-21T13:15:07.892Z,13.00
2023-03-21T13:17:44.092Z,17.03
2023-03-21T13:20:38.625Z,19.03
2023-03-21T13:23:08.361Z,17.43
2023-03-21T13:25:46.879Z,17.03
2023-03-21T13:28:25.581Z,15.60
2023-03-21T13:30:53.236Z,14.43
2023-03-21T13:33:32.989Z,16.87
2023-03-21T13:36:07.111Z,16.33
2023-03-21T13:38:36.331Z,16.60
2023-03-21T13:41:09.014Z,18.20
2023-03-21T13:43:51.607Z,17.47
2023-03-21T13:46:25.316Z,17.10
2023-03-21T13:48:58.588Z,15.53
2023-03-21T13:51:42.026Z,16.57
2023-03-21T13:54:15.566Z,17.67
2023-03-21T13:56:48.200Z,16.60
2023-03-21T13:59:38.835Z,18.63
2023-03-21T14:02:12.587Z,16.80
2023-03-21T14:04:53.865Z,17.90
2023-03-21T14:07:41.337Z,18.00
2023-03-21T14:10:20.104Z,18.97
2023-03-21T14:12:48.855Z,14.03
2023-03-21T14:15:22.808Z,17.23
2023-03-21T14:17:59.412Z,17.37
2023-03-21T14:20:32.792Z,20.33
2023-03-21T14:23:00.165Z,17.47
2023-03-21T14:25:41.047Z,19.13
2023-03-21T14:28:16.821Z,17.23
2023-03-21T14:30:44.750Z,23.40
2023-03-21T14:33:28.971Z,18.87
2023-03-21T14:35:59.629Z,18.60
2023-03-21T14:38:32.214Z,19.20
2023-03-21T14:40:59.445Z,18.87
2023-03-21T14:43:27.971Z,21.43
2023-03-21T14:45:56.744Z,21.27
2023-03-21T14:48:35.492Z,19.20
2023-03-21T14:51:10.077Z,18.40
2023-03-21T14:53:42.189Z,18.63
2023-03-21T14:56:25.585Z,18.00
2023-03-21T14:58:53.861Z,16.07
2023-03-21T15:01:30.979Z,16.73
2023-03-21T15:04:00.589Z,14.10
2023-03-21T15:06:27.928Z,14.47
2023-03-21T15:09:01.012Z,14.63
2023-03-21T15:11:31.887Z,15.17
2023-03-21T15:14:02.122Z,12.47
2023-03-21T15:16:31.202Z,11.90
2023-03-21T15:19:00.336Z,13.50
2023-03-21T15:21:49.599Z,14.73
2023-03-21T15:24:26.968Z,17.67
2023-03-21T15:27:00.640Z,15.47
2023-03-21T15:29:29.241Z,15.67
2023-03-21T15:31:56.747Z,17.03
2023-03-21T15:34:29.124Z,15.27
2023-03-21T15:37:01.091Z,16.63
2023-03-21T15:39:29.581Z,14.97
2023-03-21T15:42:07.140Z,13.83
2023-03-21T15:44:35.402Z,13.47
2023-03-21T15:47:03.019Z,13.77
2023-03-21T15:49:32.295Z,12.00
2023-03-21T15:52:06.820Z,11.80
2023-03-21T15:54:56.050Z,12.60
2023-03-21T15:57:37.913Z,10.60
2023-03-21T16:00:18.200Z,12.37
2023-03-21T16:02:46.121Z,12.10
2023-03-21T16:05:34.166Z,12.20
2023-03-21T16:08:19.671Z,12.77
2023-03-21T16:10:48.748Z,13.13
2023-03-21T16:13:17.371Z,12.30
2023-03-21T16:15:45.819Z,12.57
2023-03-21T16:18:16.165Z,13.30
2023-03-21T16:20:46.022Z,12.77
2023-03-21T16:23:14.810Z,16.17
2023-03-21T16:25:43.813Z,14.83
2023-03-21T16:28:17.610Z,14.70
2023-03-21T16:30:45.009Z,14.20
2023-03-21T16:33:12.901Z,14.67
2023-03-21T16:35:40.336Z,15.63
2023-03-21T16:38:07.656Z,15.10
2023-03-21T16:40:37.845Z,12.43
2023-03-21T16:43:05.626Z,14.80
2023-03-21T16:45:33.135Z,16.83
2023-03-21T16:48:00.867Z,16.67
2023-03-21T16:50:37.110Z,14.40
2023-03-21T16:53:04.591Z,15.87
2023-03-21T16:55:33.842Z,16.93
2023-03-21T16:58:01.270Z,16.23
2023-03-21T17:00:30.756Z,16.70
2023-03-21T17:03:01.627Z,17.93
2023-03-21T17:05:32.683Z,16.10
2023-03-21T17:08:02.298Z,17.50
2023-03-21T17:10:31.872Z,17.30
2023-03-21T17:12:59.418Z,15.40
2023-03-21T17:15:26.926Z,18.53
2023-03-21T17:17:55.587Z,14.97
2023-03-21T17:20:26.065Z,15.10
2023-03-21T17:22:53.425Z,17.07
2023-03-21T17:25:20.990Z,19.37
2023-03-21T17:27:48.851Z,18.40
2023-03-21T17:30:28.317Z,17.87
2023-03-21T17:32:56.267Z,20.30
2023-03-21T17:35:25.140Z,19.70
2023-03-21T17:37:53.464Z,18.87
2023-03-21T17:40:25.128Z,15.80
2023-03-21T17:42:53.068Z,19.03
2023-03-21T17:45:21.736Z,21.70
2023-03-21T17:47:49.657Z,20.50
2023-03-21T17:50:25.933Z,21.17
2023-03-21T17:52:56.427Z,20.20
2023-03-21T17:55:24.498Z,18.93
2023-03-21T17:57:52.172Z,19.80
2023-03-21T18:00:23.672Z,18.60
2023-03-21T18:02:51.516Z,20.90
2023-03-21T18:05:21.192Z,20.80
2023-03-21T18:08:19.138Z,21.53
2023-03-21T18:10:36.957Z,20.00
2023-03-21T18:13:04.516Z,21.70
2023-03-21T18:15:31.932Z,21.10
2023-03-21T18:17:59.151Z,19.67
2023-03-21T18:20:49.942Z,21.30
2023-03-21T18:23:16.092Z,20.10
2023-03-21T18:25:43.563Z,21.43
2023-03-21T18:28:12.453Z,22.43
2023-03-21T18:31:05.264Z,19.53
2023-03-21T18:33:29.921Z,16.87
2023-03-21T18:35:59.376Z,17.90
2023-03-21T18:38:28.242Z,18.17
2023-03-21T18:40:56.195Z,18.80
2023-03-21T18:46:12.652Z,17.10
2023-03-21T18:48:40.512Z,18.33
2023-03-21T18:51:09.504Z,19.07
2023-03-21T18:53:37.854Z,17.70
2023-03-21T18:56:09.942Z,20.47
2023-03-21T18:58:38.570Z,20.33
2023-03-21T19:01:06.376Z,19.77
2023-03-21T19:03:37.010Z,20.33
2023-03-21T19:06:06.352Z,20.50
2023-03-21T19:08:38.240Z,16.00
2023-03-21T19:11:07.091Z,19.07
2023-03-21T19:13:34.806Z,17.57
2023-03-21T19:16:03.068Z,21.17
2023-03-21T19:18:52.097Z,16.30
2023-03-21T19:21:19.683Z,18.50
2023-03-21T19:24:22.919Z,18.23
2023-03-21T19:26:35.260Z,18.53
2023-03-21T19:29:02.709Z,16.30
2023-03-21T19:31:31.033Z,16.20
2023-03-21T19:33:59.415Z,18.10
2023-03-21T19:36:27.234Z,19.10
2023-03-21T19:38:54.532Z,16.93
2023-03-21T19:41:21.920Z,18.70
2023-03-21T19:43:55.036Z,17.00
2023-03-21T19:46:25.315Z,16.97
2023-03-21T19:48:56.488Z,17.00
2023-03-21T19:51:29.686Z,18.47
2023-03-21T19:53:58.973Z,20.20
2023-03-21T19:56:27.855Z,16.10
2023-03-21T19:58:56.162Z,18.27
2023-03-21T20:01:24.938Z,14.70
2023-03-21T20:03:53.373Z,17.53
2023-03-21T20:06:24.238Z,18.43
2023-03-21T20:09:37.617Z,16.63
2023-03-21T20:11:41.544Z,13.47
2023-03-21T20:14:09.419Z,17.00
2023-03-21T20:16:37.365Z,16.10
2023-03-21T20:19:08.681Z,16.80
2023-03-21T20:21:47.640Z,17.33
2023-03-21T20:24:20.016Z,14.87
2023-03-21T20:26:49.366Z,14.30
2023-03-21T20:30:05.728Z,17.57
2023-03-21T20:32:04.610Z,16.10
2023-03-21T20:34:32.961Z,16.37
2023-03-21T20:37:00.872Z,16.50
2023-03-21T20:39:29.889Z,17.20
2023-03-21T20:41:59.421Z,15.97
2023-03-21T20:44:51.760Z,14.90
2023-03-21T20:47:15.659Z,12.80
2023-03-21T20:49:43.016Z,13.97
2023-03-21T20:54:57.671Z,14.80
2023-03-21T20:57:27.018Z,13.60
2023-03-21T20:59:57.495Z,13.27
2023-03-21T21:02:24.887Z,13.80
2023-03-21T21:05:21.890Z,15.10
2023-03-21T21:07:44.040Z,12.60
2023-03-21T21:10:15.124Z,13.37
2023-03-21T21:12:45.166Z,14.33
2023-03-21T21:15:16.532Z,9.90
2023-03-21T21:18:04.663Z,13.87
2023-03-21T21:20:33.523Z,9.10
2023-03-21T21:23:01.197Z,12.97
2023-03-21T21:25:32.068Z,11.67
2023-03-21T21:28:01.519Z,12.33
2023-03-21T21:30:32.473Z,11.80
2023-03-21T21:33:00.700Z,12.37
2023-03-21T21:35:28.369Z,13.20
2023-03-21T21:37:55.957Z,11.80
2023-03-21T21:40:23.279Z,12.57
2023-03-21T21:42:51.198Z,11.50
2023-03-21T21:45:18.905Z,11.47
2023-03-21T21:47:46.796Z,11.13
2023-03-21T21:50:14.247Z,9.90
2023-03-21T21:52:43.687Z,10.40
2023-03-21T21:55:13.021Z,11.20
2023-03-21T21:57:40.853Z,11.63
2023-03-21T22:00:13.420Z,10.57
2023-03-21T22:02:41.775Z,10.43
2023-03-21T22:05:10.429Z,11.40
2023-03-21T22:07:38.929Z,12.50
2023-03-21T22:10:06.997Z,11.70
2023-03-21T22:12:35.084Z,10.10
2023-03-21T22:15:07.516Z,11.23
2023-03-21T22:17:36.158Z,8.97
2023-03-21T22:20:09.273Z,10.70
2023-03-21T22:22:37.299Z,9.07
2023-03-21T22:25:06.633Z,9.50
2023-03-21T22:27:34.002Z,8.70
2023-03-21T22:30:04.683Z,9.20
2023-03-21T22:32:35.188Z,9.40
2023-03-21T22:35:02.553Z,9.17
2023-03-21T22:37:34.281Z,9.60
2023-03-21T22:40:02.298Z,9.63
2023-03-21T22:42:29.475Z,8.60
2023-03-21T22:44:56.806Z,8.60
2023-03-21T22:47:24.608Z,8.00
2023-03-21T22:49:52.140Z,9.50
2023-03-21T22:52:19.370Z,8.77
2023-03-21T22:54:47.493Z,9.87
2023-03-21T22:57:15.985Z,9.17
2023-03-21T22:59:43.159Z,8.30
2023-03-21T23:02:10.778Z,8.33
2023-03-21T23:04:38.455Z,9.67
2023-03-21T23:07:05.808Z,7.37
2023-03-21T23:09:33.743Z,7.20
2023-03-21T23:12:01.063Z,9.50
2023-03-21T23:14:28.512Z,8.33
2023-03-21T23:17:00.006Z,10.00
2023-03-21T23:19:28.723Z,8.87
2023-03-21T23:21:56.810Z,9.77
2023-03-21T23:24:24.317Z,10.43
2023-03-21T23:26:52.009Z,9.60
2023-03-21T23:29:20.058Z,10.20
2023-03-21T23:31:47.397Z,9.30
2023-03-21T23:34:14.780Z,9.60
2023-03-21T23:36:42.224Z,8.63
2023-03-21T23:39:09.780Z,10.70
2023-03-21T23:41:37.138Z,9.33
2023-03-21T23:44:04.911Z,9.80
2023-03-21T23:46:32.222Z,10.20
2023-03-21T23:48:59.491Z,10.03
2023-03-21T23:51:26.751Z,11.00
2023-03-21T23:53:56.431Z,10.87
2023-03-21T23:56:25.974Z,11.10
2023-03-21T23:58:53.596Z,10.33
